Time;durP1;ratioP1;P1;durP2;ratioP2;P2;SDS_P1;SDS_P2;PMS_P1;PMS_P2;Temp;Humidity;BMP_temperature;BMP_pressure;BME280_temperature;BME280_humidity;BME280_pressure;Samples;Min_cycle;Max_cycle;Signal;HPM_P1;HPM_P2
2021/08/28 00:02:25;;;;;;;;;;;;;;;20.18;83.12;99279.16;5031960;28;814;-60
2021/08/28 00:04:51;;;;;;;;;;;;;;;20.06;83.62;99290.66;5032256;28;846;-60
2021/08/28 00:07:18;;;;;;;;;;;;;;;20.00;83.72;99296.16;5032199;28;850;-60
2021/08/28 00:09:44;;;;;;;;;;;;;;;19.97;84.02;99299.91;5032518;28;790;-60
2021/08/28 00:12:11;;;;;;;;;;;;;;;19.96;84.19;99298.38;5031872;28;1914;-59
2021/08/28 00:14:38;;;;;;;;;;;;;;;19.96;84.03;99301.16;5032151;28;1015;-60
2021/08/28 00:17:05;;;;;;;;;;;;;;;20.03;84.12;99311.25;5031464;28;1071;-59
2021/08/28 00:19:32;;;;;;;;;;;;;;;20.08;84.16;99310.56;5031754;28;873;-59
2021/08/28 00:21:58;;;;;;;;;;;;;;;20.10;84.02;99314.47;5031565;28;806;-60
2021/08/28 00:24:25;;;;;;;;;;;;;;;20.13;84.32;99312.72;5031558;28;924;-60
2021/08/28 00:26:53;;;;;;;;;;;;;;;20.16;84.45;99309.75;5031386;28;999;-60
2021/08/28 00:29:20;;;;;;;;;;;;;;;20.25;84.43;99311.69;5031486;28;909;-60
2021/08/28 00:31:47;;;;;;;;;;;;;;;20.37;84.45;99305.00;5031480;28;1973;-60
2021/08/28 00:34:13;;;;;;;;;;;;;;;20.44;84.47;99309.50;5031433;28;878;-60
2021/08/28 00:36:40;;;;;;;;;;;;;;;20.52;84.78;99312.69;5031399;28;870;-60
2021/08/28 00:39:06;;;;;;;;;;;;;;;20.60;84.89;99311.06;5031425;28;874;-60
2021/08/28 00:41:33;;;;;;;;;;;;;;;20.80;85.33;99310.38;5031343;28;847;-60
2021/08/28 00:44:00;;;;;;;;;;;;;;;21.01;85.77;99323.25;5031356;28;877;-60
2021/08/28 00:46:27;;;;;;;;;;;;;;;21.13;86.16;99318.59;5034719;28;937;-60
2021/08/28 00:48:54;;;;;;;;;;;;;;;21.23;86.47;99318.47;5035269;28;874;-60
2021/08/28 00:51:20;;;;;;;;;;;;;;;21.29;86.71;99322.91;5035404;28;850;-60
2021/08/28 00:53:47;;;;;;;;;;;;;;;21.35;86.50;99312.50;5035161;28;1894;-60
2021/08/28 00:56:13;;;;;;;;;;;;;;;21.36;86.18;99319.69;5035046;28;803;-60
2021/08/28 00:58:40;;;;;;;;;;;;;;;21.32;86.34;99319.13;5035327;28;849;-60
2021/08/28 01:01:18;;;;;;;;;;;;;;;21.18;86.25;99319.94;5035171;28;842;-60
2021/08/28 01:03:47;;;;;;;;;;;;;;;21.01;86.85;99323.25;5035375;28;889;-60
2021/08/28 01:06:19;;;;;;;;;;;;;;;20.88;87.11;99314.34;5035069;28;862;-60
2021/08/28 01:08:48;;;;;;;;;;;;;;;20.81;87.14;99314.75;5034932;28;863;-60
2021/08/28 01:11:30;;;;;;;;;;;;;;;20.79;86.98;99311.66;5034872;28;826;-60
2021/08/28 01:14:12;;;;;;;;;;;;;;;20.77;87.24;99309.31;5034861;28;1945;-60
2021/08/28 01:16:39;;;;;;;;;;;;;;;20.81;87.26;99311.94;5034764;28;1344;-59
2021/08/28 01:19:07;;;;;;;;;;;;;;;20.82;87.00;99312.72;5034981;28;830;-60
2021/08/28 01:21:37;;;;;;;;;;;;;;;20.76;86.62;99309.78;5034791;28;826;-60
2021/08/28 01:24:06;;;;;;;;;;;;;;;20.67;87.15;99304.28;5034751;28;806;-60
2021/08/28 01:26:40;;;;;;;;;;;;;;;20.60;87.24;99302.66;5034557;28;881;-59
2021/08/28 01:29:13;;;;;;;;;;;;;;;20.58;87.18;99299.53;5034707;28;819;-60
2021/08/28 01:31:40;;;;;;;;;;;;;;;20.62;87.31;99300.13;5034746;28;1906;-60
2021/08/28 01:34:06;;;;;;;;;;;;;;;20.70;86.75;99298.50;5035027;28;795;-59
2021/08/28 01:36:34;;;;;;;;;;;;;;;20.73;86.75;99291.88;5034519;28;886;-60
2021/08/28 01:39:01;;;;;;;;;;;;;;;20.74;86.69;99296.25;5035076;28;826;-60
2021/08/28 01:41:28;;;;;;;;;;;;;;;20.71;86.08;99285.22;5034711;28;834;-60
2021/08/28 01:43:54;;;;;;;;;;;;;;;20.67;86.36;99295.88;5035256;28;839;-59
2021/08/28 01:46:22;;;;;;;;;;;;;;;20.70;86.28;99287.25;5033294;28;807;-60
2021/08/28 01:48:48;;;;;;;;;;;;;;;20.75;85.81;99288.59;5034574;28;825;-60
2021/08/28 01:51:15;;;;;;;;;;;;;;;20.83;85.17;99289.75;5034916;28;786;-60
2021/08/28 01:53:42;;;;;;;;;;;;;;;20.91;84.40;99285.31;5034882;28;1890;-60
2021/08/28 01:56:10;;;;;;;;;;;;;;;20.96;83.93;99286.66;5034107;28;895;-60
2021/08/28 01:58:38;;;;;;;;;;;;;;;20.99;83.12;99285.66;5034041;28;913;-60
2021/08/28 02:01:05;;;;;;;;;;;;;;;21.04;81.94;99279.38;5034185;28;941;-60
2021/08/28 02:03:31;;;;;;;;;;;;;;;21.11;81.31;99281.78;5034291;28;838;-60
2021/08/28 02:06:01;;;;;;;;;;;;;;;21.15;80.79;99287.19;5034163;28;877;-60
2021/08/28 02:08:48;;;;;;;;;;;;;;;21.18;80.78;99280.59;5033899;28;839;-60
2021/08/28 02:11:18;;;;;;;;;;;;;;;21.15;80.99;99290.78;5033776;28;1156;-60
2021/08/28 02:13:55;;;;;;;;;;;;;;;21.11;81.38;99286.63;5033640;28;1882;-60
2021/08/28 02:16:25;;;;;;;;;;;;;;;21.08;81.79;99291.19;5033808;28;1214;-60
2021/08/28 02:19:04;;;;;;;;;;;;;;;21.05;82.34;99288.56;5033704;28;933;-60
2021/08/28 02:21:31;;;;;;;;;;;;;;;21.04;82.23;99301.06;5033611;28;917;-60
2021/08/28 02:24:01;;;;;;;;;;;;;;;20.95;82.88;99288.69;5033511;28;819;-60
2021/08/28 02:26:34;;;;;;;;;;;;;;;20.90;83.21;99285.78;5033528;28;807;-60
2021/08/28 02:29:02;;;;;;;;;;;;;;;20.77;83.34;99288.88;5033510;28;830;-60
2021/08/28 02:31:36;;;;;;;;;;;;;;;20.60;83.62;99292.19;5033731;28;826;-60
2021/08/28 02:34:04;;;;;;;;;;;;;;;20.57;84.83;99286.75;5033356;28;1906;-60
2021/08/28 02:36:31;;;;;;;;;;;;;;;20.76;85.67;99284.53;5032163;28;1024;-60
2021/08/28 02:38:58;;;;;;;;;;;;;;;20.98;86.92;99293.31;5033329;28;863;-60
2021/08/28 02:41:26;;;;;;;;;;;;;;;21.19;87.22;99293.38;5033270;28;904;-60
2021/08/28 02:43:55;;;;;;;;;;;;;;;21.32;87.69;99293.06;5033359;28;889;-61
2021/08/28 02:46:24;;;;;;;;;;;;;;;21.37;87.67;99295.94;5033227;28;822;-60
2021/08/28 02:48:52;;;;;;;;;;;;;;;21.35;87.61;99292.84;5033086;28;881;-60
2021/08/28 02:51:19;;;;;;;;;;;;;;;21.32;88.24;99293.84;5033272;28;837;-60
2021/08/28 02:53:47;;;;;;;;;;;;;;;21.28;88.89;99296.06;5032888;28;1886;-60
2021/08/28 02:56:15;;;;;;;;;;;;;;;21.26;88.69;99301.41;5032975;28;834;-60
2021/08/28 02:58:43;;;;;;;;;;;;;;;21.28;88.53;99303.72;5032930;28;872;-60
2021/08/28 03:01:11;;;;;;;;;;;;;;;21.26;88.65;99303.44;5032820;28;819;-61
2021/08/28 03:03:38;;;;;;;;;;;;;;;21.29;88.82;99299.66;5032864;28;842;-60
2021/08/28 03:06:06;;;;;;;;;;;;;;;21.30;88.76;99306.84;5032677;28;931;-60
2021/08/28 03:08:34;;;;;;;;;;;;;;;21.30;88.46;99299.16;5031819;28;890;-60
2021/08/28 03:11:01;;;;;;;;;;;;;;;21.33;87.99;99303.78;5032627;28;795;-60
2021/08/28 03:13:28;;;;;;;;;;;;;;;21.33;88.04;99305.84;5032548;28;1897;-60
2021/08/28 03:15:56;;;;;;;;;;;;;;;21.23;87.74;99308.00;5032244;28;1532;-61
2021/08/28 03:18:24;;;;;;;;;;;;;;;21.15;88.05;99310.44;5032597;28;1076;-61
2021/08/28 03:20:55;;;;;;;;;;;;;;;21.10;87.84;99313.94;5032394;28;811;-61
2021/08/28 03:23:23;;;;;;;;;;;;;;;21.08;88.22;99307.25;5032404;28;850;-60
2021/08/28 03:25:50;;;;;;;;;;;;;;;21.09;88.31;99315.19;5031162;28;1199;-60
2021/08/28 03:28:16;;;;;;;;;;;;;;;21.13;88.52;99315.00;5032342;28;787;-61
2021/08/28 03:30:44;;;;;;;;;;;;;;;21.17;88.03;99315.59;5032364;28;984;-60
2021/08/28 03:33:13;;;;;;;;;;;;;;;21.26;87.98;99311.88;5032190;28;1914;-61
2021/08/28 03:35:40;;;;;;;;;;;;;;;21.36;87.48;99319.69;5032255;28;908;-60
2021/08/28 03:38:07;;;;;;;;;;;;;;;21.48;87.13;99312.22;5032255;28;823;-60
2021/08/28 03:40:34;;;;;;;;;;;;;;;21.56;86.65;99315.41;5032468;28;834;-61
2021/08/28 03:43:02;;;;;;;;;;;;;;;21.55;86.75;99314.63;5032319;28;862;-61
2021/08/28 03:45:29;;;;;;;;;;;;;;;21.49;87.10;99313.78;5032144;28;790;-61
2021/08/28 03:47:56;;;;;;;;;;;;;;;21.48;87.08;99322.69;5032076;28;830;-61
2021/08/28 03:50:23;;;;;;;;;;;;;;;21.45;87.49;99318.06;5032001;28;858;-61
2021/08/28 03:52:49;;;;;;;;;;;;;;;21.47;86.86;99324.75;5031847;28;1898;-61
2021/08/28 03:55:15;;;;;;;;;;;;;;;21.49;86.84;99333.47;5031969;28;955;-61
2021/08/28 03:57:43;;;;;;;;;;;;;;;21.54;86.10;99323.56;5032209;28;830;-62
2021/08/28 04:00:09;;;;;;;;;;;;;;;21.59;86.08;99325.66;5031876;28;862;-61
2021/08/28 04:02:35;;;;;;;;;;;;;;;21.66;84.11;99324.47;5031921;28;862;-62
2021/08/28 04:05:02;;;;;;;;;;;;;;;21.73;83.29;99324.84;5031738;28;810;-61
2021/08/28 04:07:29;;;;;;;;;;;;;;;21.71;82.73;99343.47;5031790;28;908;-61
2021/08/28 04:09:58;;;;;;;;;;;;;;;21.55;83.04;99341.94;5031690;28;854;-61
2021/08/28 04:12:25;;;;;;;;;;;;;;;21.39;83.37;99338.38;5031703;28;1894;-61
2021/08/28 04:14:52;;;;;;;;;;;;;;;21.28;83.50;99334.66;5031697;28;1034;-61
2021/08/28 04:17:18;;;;;;;;;;;;;;;21.25;82.13;99335.59;5031351;28;1418;-61
2021/08/28 04:19:45;;;;;;;;;;;;;;;21.22;80.97;99334.56;5031370;28;869;-61
2021/08/28 04:22:11;;;;;;;;;;;;;;;21.21;78.36;99333.03;5031433;28;881;-61
2021/08/28 04:24:38;;;;;;;;;;;;;;;21.19;78.06;99341.16;5031603;28;854;-61
2021/08/28 04:27:04;;;;;;;;;;;;;;;21.18;78.04;99328.34;5031574;28;842;-61
2021/08/28 04:29:31;;;;;;;;;;;;;;;21.20;77.50;99334.25;5031523;28;897;-61
2021/08/28 04:31:57;;;;;;;;;;;;;;;21.23;77.27;99341.75;5031439;28;1984;-61
2021/08/28 04:34:23;;;;;;;;;;;;;;;21.22;76.22;99337.38;5031559;28;823;-61
2021/08/28 04:36:49;;;;;;;;;;;;;;;21.23;75.07;99327.69;5031581;28;873;-61
2021/08/28 04:39:16;;;;;;;;;;;;;;;21.24;73.93;99339.69;5031710;28;948;-61
2021/08/28 04:41:43;;;;;;;;;;;;;;;21.24;73.69;99334.84;5031608;28;886;-60
2021/08/28 04:44:09;;;;;;;;;;;;;;;21.26;73.59;99321.06;5032165;28;827;-61
2021/08/28 04:46:36;;;;;;;;;;;;;;;21.30;72.63;99327.28;5031723;28;850;-61
2021/08/28 04:49:02;;;;;;;;;;;;;;;21.37;72.80;99323.28;5031979;28;850;-61
2021/08/28 04:51:29;;;;;;;;;;;;;;;21.44;71.63;99317.25;5031175;28;905;-61
2021/08/28 04:53:55;;;;;;;;;;;;;;;21.52;69.94;99334.50;5031191;28;1945;-60
2021/08/28 04:56:22;;;;;;;;;;;;;;;21.57;68.44;99337.41;5031271;28;834;-61
2021/08/28 04:58:49;;;;;;;;;;;;;;;21.63;68.39;99331.84;5031326;28;870;-61
2021/08/28 05:01:15;;;;;;;;;;;;;;;21.69;67.76;99326.31;5031497;28;877;-61
2021/08/28 05:03:42;;;;;;;;;;;;;;;21.71;67.91;99320.97;5031400;28;921;-61
2021/08/28 05:06:10;;;;;;;;;;;;;;;21.78;67.37;99328.97;5031254;28;822;-61
2021/08/28 05:08:37;;;;;;;;;;;;;;;21.83;67.47;99331.09;5031154;28;886;-61
2021/08/28 05:16:14;;;;;;;;;;;;;;;21.99;66.80;99324.91;5495689;22;2490;-61
2021/08/28 05:18:41;;;;;;;;;;;;;;;22.11;66.55;99320.19;5031086;28;872;-61
2021/08/28 05:21:08;;;;;;;;;;;;;;;22.21;65.22;99332.84;5031079;28;866;-61
2021/08/28 05:23:34;;;;;;;;;;;;;;;22.33;65.36;99328.13;5031383;28;833;-62
2021/08/28 05:26:00;;;;;;;;;;;;;;;22.44;64.70;99335.91;5031014;28;850;-60
2021/08/28 05:28:27;;;;;;;;;;;;;;;22.63;64.14;99334.31;5031080;28;822;-61
2021/08/28 05:30:53;;;;;;;;;;;;;;;22.80;62.93;99333.72;5030973;28;848;-61
2021/08/28 05:33:19;;;;;;;;;;;;;;;22.84;62.35;99346.28;5034240;28;1910;-61
2021/08/28 05:35:46;;;;;;;;;;;;;;;22.89;62.21;99325.06;5034854;28;924;-61
2021/08/28 05:38:12;;;;;;;;;;;;;;;22.99;62.04;99328.50;5034733;28;818;-61
2021/08/28 05:40:40;;;;;;;;;;;;;;;23.09;61.52;99331.94;5034613;28;1165;-61
2021/08/28 05:43:08;;;;;;;;;;;;;;;23.22;60.53;99335.13;5034823;28;849;-60
2021/08/28 05:45:34;;;;;;;;;;;;;;;23.42;60.46;99340.63;5033160;28;1176;-61
2021/08/28 05:48:01;;;;;;;;;;;;;;;23.70;59.56;99339.25;5034556;28;834;-62
2021/08/28 05:50:27;;;;;;;;;;;;;;;23.94;58.11;99338.88;5034761;28;806;-61
2021/08/28 05:52:54;;;;;;;;;;;;;;;24.21;56.82;99355.16;5034271;28;1951;-61
2021/08/28 05:55:21;;;;;;;;;;;;;;;24.40;56.87;99335.69;5034184;28;849;-61
2021/08/28 05:57:47;;;;;;;;;;;;;;;24.76;55.97;99340.94;5034425;28;858;-61
2021/08/28 06:00:14;;;;;;;;;;;;;;;24.95;54.84;99347.63;5034011;28;817;-61
2021/08/28 06:02:41;;;;;;;;;;;;;;;25.05;54.68;99351.75;5034048;28;807;-61
2021/08/28 06:05:08;;;;;;;;;;;;;;;25.35;54.14;99348.41;5033946;28;925;-61
2021/08/28 06:07:35;;;;;;;;;;;;;;;25.63;53.02;99351.19;5034208;28;885;-62
2021/08/28 06:10:03;;;;;;;;;;;;;;;26.12;50.95;99344.34;5034050;28;896;-61
2021/08/28 06:12:29;;;;;;;;;;;;;;;26.27;50.46;99347.63;5034376;28;1949;-62
2021/08/28 06:14:55;;;;;;;;;;;;;;;26.48;50.03;99360.13;5033775;28;975;-62
2021/08/28 06:17:22;;;;;;;;;;;;;;;26.93;48.46;99356.28;5033497;28;1237;-61
2021/08/28 06:19:48;;;;;;;;;;;;;;;27.19;48.08;99357.88;5033714;28;814;-61
2021/08/28 06:22:15;;;;;;;;;;;;;;;27.55;46.46;99354.97;5033793;28;865;-61
2021/08/28 06:24:42;;;;;;;;;;;;;;;27.60;45.97;99342.78;5033797;28;933;-62
2021/08/28 06:27:09;;;;;;;;;;;;;;;27.82;45.63;99342.53;5033561;28;818;-61
2021/08/28 06:29:36;;;;;;;;;;;;;;;27.75;45.45;99342.38;5033565;28;861;-62
2021/08/28 06:32:04;;;;;;;;;;;;;;;27.79;45.60;99337.94;5033422;28;1972;-63
2021/08/28 06:34:31;;;;;;;;;;;;;;;27.63;45.57;99348.19;5033416;28;814;-62
2021/08/28 06:36:57;;;;;;;;;;;;;;;27.59;46.03;99344.06;5033348;28;803;-61
2021/08/28 06:39:24;;;;;;;;;;;;;;;27.99;44.96;99348.03;5033302;28;901;-62
2021/08/28 06:41:50;;;;;;;;;;;;;;;28.27;44.92;99344.06;5033636;28;870;-62
2021/08/28 06:44:18;;;;;;;;;;;;;;;28.61;44.07;99347.22;5032907;28;834;-61
2021/08/28 06:46:45;;;;;;;;;;;;;;;28.88;43.80;99353.78;5033235;28;858;-62
2021/08/28 06:49:11;;;;;;;;;;;;;;;28.96;42.90;99353.94;5033065;28;1012;-62
2021/08/28 06:51:38;;;;;;;;;;;;;;;28.83;43.59;99348.97;5033140;28;861;-61
2021/08/28 06:54:04;;;;;;;;;;;;;;;29.26;42.31;99352.97;5032975;28;1894;-61
2021/08/28 06:56:32;;;;;;;;;;;;;;;29.32;41.92;99345.09;5033036;28;798;-62
2021/08/28 06:58:59;;;;;;;;;;;;;;;29.43;41.32;99353.44;5032962;28;838;-62
2021/08/28 07:01:26;;;;;;;;;;;;;;;29.68;41.01;99344.66;5033025;28;854;-62
2021/08/28 07:03:52;;;;;;;;;;;;;;;29.76;41.29;99339.88;5033082;28;826;-64
2021/08/28 07:06:19;;;;;;;;;;;;;;;29.66;40.63;99341.59;5032870;28;918;-63
2021/08/28 07:08:46;;;;;;;;;;;;;;;29.75;41.14;99337.59;5032839;28;865;-63
2021/08/28 07:11:13;;;;;;;;;;;;;;;29.76;40.89;99331.34;5032727;28;849;-63
2021/08/28 07:13:40;;;;;;;;;;;;;;;29.74;41.28;99333.97;5032534;28;1953;-62
2021/08/28 07:16:06;;;;;;;;;;;;;;;29.99;39.74;99331.66;5031014;28;1423;-61
2021/08/28 07:18:33;;;;;;;;;;;;;;;29.79;40.58;99338.03;5032618;28;824;-62
2021/08/28 07:21:00;;;;;;;;;;;;;;;29.73;40.64;99343.09;5032914;28;866;-63
2021/08/28 07:23:27;;;;;;;;;;;;;;;30.09;39.33;99337.69;5032485;28;841;-62
2021/08/28 07:25:54;;;;;;;;;;;;;;;29.78;40.60;99342.94;5032539;28;872;-63
2021/08/28 07:28:22;;;;;;;;;;;;;;;29.97;40.00;99328.59;5031269;28;1629;-62
2021/08/28 07:30:49;;;;;;;;;;;;;;;30.12;39.43;99323.06;5032377;28;857;-62
2021/08/28 07:33:16;;;;;;;;;;;;;;;30.27;39.10;99333.91;5032307;28;1918;-63
2021/08/28 07:35:42;;;;;;;;;;;;;;;29.94;40.09;99335.41;5032362;28;815;-63
2021/08/28 07:38:08;;;;;;;;;;;;;;;30.22;39.38;99336.88;5032155;28;1239;-63
2021/08/28 07:40:35;;;;;;;;;;;;;;;30.33;39.36;99337.44;5032277;28;889;-62
2021/08/28 07:43:02;;;;;;;;;;;;;;;30.55;38.98;99335.38;5032089;28;889;-63
2021/08/28 07:45:29;;;;;;;;;;;;;;;30.72;39.16;99335.00;5032124;28;905;-62
2021/08/28 07:47:56;;;;;;;;;;;;;;;31.03;38.91;99343.88;5032098;28;850;-62
2021/08/28 07:50:22;;;;;;;;;;;;;;;31.06;37.62;99340.66;5032056;28;814;-62
2021/08/28 07:52:49;;;;;;;;;;;;;;;30.67;38.53;99344.47;5031961;28;1893;-62
2021/08/28 07:55:16;;;;;;;;;;;;;;;30.59;38.99;99337.91;5031634;28;783;-62
2021/08/28 07:57:43;;;;;;;;;;;;;;;30.49;38.94;99334.75;5031973;28;873;-63
2021/08/28 08:00:10;;;;;;;;;;;;;;;30.59;38.95;99329.34;5031888;28;877;-64
2021/08/28 08:02:37;;;;;;;;;;;;;;;30.66;38.68;99329.44;5031888;28;803;-63
2021/08/28 08:05:04;;;;;;;;;;;;;;;30.81;39.50;99328.03;5031853;28;958;-63
2021/08/28 08:07:30;;;;;;;;;;;;;;;31.54;37.37;99329.84;5031841;28;858;-63
2021/08/28 08:09:56;;;;;;;;;;;;;;;31.68;37.02;99329.72;5031685;28;842;-64
2021/08/28 08:12:23;;;;;;;;;;;;;;;31.76;37.08;99330.53;5031639;28;1914;-62
2021/08/28 08:14:50;;;;;;;;;;;;;;;32.19;36.90;99329.06;5031933;28;1017;-63
2021/08/28 08:17:16;;;;;;;;;;;;;;;32.38;35.87;99328.00;5031476;28;1230;-63
2021/08/28 08:19:44;;;;;;;;;;;;;;;32.01;36.15;99330.16;5031657;28;873;-62
2021/08/28 08:22:10;;;;;;;;;;;;;;;32.08;36.20;99321.59;5031645;28;802;-63
2021/08/28 08:24:37;;;;;;;;;;;;;;;32.26;36.01;99324.69;5031502;28;814;-63
2021/08/28 08:27:03;;;;;;;;;;;;;;;32.68;35.22;99318.75;5031672;28;835;-63
2021/08/28 08:29:30;;;;;;;;;;;;;;;32.42;35.86;99314.84;5031520;28;815;-62
2021/08/28 08:31:57;;;;;;;;;;;;;;;32.42;36.50;99316.94;5031407;28;1910;-62
2021/08/28 08:34:23;;;;;;;;;;;;;;;33.17;34.87;99305.44;5031472;28;916;-62
2021/08/28 08:36:50;;;;;;;;;;;;;;;32.90;34.19;99312.31;5031725;28;918;-63
2021/08/28 08:39:17;;;;;;;;;;;;;;;32.68;34.95;99307.31;5031509;28;897;-64
2021/08/28 08:41:45;;;;;;;;;;;;;;;32.54;34.86;99309.56;5031333;28;905;-63
2021/08/28 08:44:12;;;;;;;;;;;;;;;32.41;35.24;99301.91;5030106;28;1437;-63
2021/08/28 08:46:39;;;;;;;;;;;;;;;32.58;35.80;99301.38;5031390;28;820;-63
2021/08/28 08:49:06;;;;;;;;;;;;;;;32.45;35.61;99301.50;5031409;28;838;-64
2021/08/28 08:51:35;;;;;;;;;;;;;;;32.37;36.06;99303.56;5031331;28;872;-62
2021/08/28 08:54:05;;;;;;;;;;;;;;;32.09;36.12;99300.25;5031298;28;1949;-64
2021/08/28 08:56:33;;;;;;;;;;;;;;;31.91;36.69;99307.75;5031268;28;881;-63
2021/08/28 08:59:00;;;;;;;;;;;;;;;31.96;37.26;99300.34;5031260;28;781;-63
2021/08/28 09:01:27;;;;;;;;;;;;;;;31.71;37.26;99305.78;5031435;28;873;-63
2021/08/28 09:03:54;;;;;;;;;;;;;;;31.51;37.09;99307.34;5031296;28;913;-63
2021/08/28 09:06:21;;;;;;;;;;;;;;;31.69;37.31;99312.03;5031187;28;885;-63
2021/08/28 09:08:48;;;;;;;;;;;;;;;31.86;37.28;99308.69;5034985;28;826;-62
2021/08/28 09:11:23;;;;;;;;;;;;;;;32.16;36.71;99301.63;5034941;28;946;-62
2021/08/28 09:13:51;;;;;;;;;;;;;;;31.88;37.39;99296.72;5035096;28;1957;-63
2021/08/28 09:16:31;;;;;;;;;;;;;;;31.90;37.15;99285.47;5034924;28;1271;-63
2021/08/28 09:18:58;;;;;;;;;;;;;;;31.98;36.71;99289.16;5034892;28;858;-63
2021/08/28 09:21:30;;;;;;;;;;;;;;;31.79;38.21;99289.41;5034864;28;815;-63
2021/08/28 09:23:59;;;;;;;;;;;;;;;32.07;36.52;99279.28;5035119;28;826;-64
2021/08/28 09:26:29;;;;;;;;;;;;;;;31.95;36.57;99295.97;5034972;28;890;-63
2021/08/28 09:28:57;;;;;;;;;;;;;;;31.72;37.62;99282.34;5034882;28;782;-63
2021/08/28 09:31:42;;;;;;;;;;;;;;;31.82;37.43;99288.31;5034597;28;861;-62
2021/08/28 09:34:17;;;;;;;;;;;;;;;31.65;37.15;99299.44;5034596;28;1906;-62
2021/08/28 09:36:43;;;;;;;;;;;;;;;31.45;37.93;99281.81;5034513;28;842;-64
2021/08/28 09:39:10;;;;;;;;;;;;;;;31.36;37.24;99290.84;5034786;28;864;-64
2021/08/28 09:41:37;;;;;;;;;;;;;;;31.24;38.04;99275.34;5034324;28;876;-63
2021/08/28 09:44:08;;;;;;;;;;;;;;;31.10;38.19;99275.44;5034520;28;860;-63
2021/08/28 09:46:36;;;;;;;;;;;;;;;31.10;39.09;99286.09;5034388;28;834;-63
2021/08/28 09:49:03;;;;;;;;;;;;;;;31.39;38.41;99288.97;5034372;28;893;-62
2021/08/28 09:51:40;;;;;;;;;;;;;;;31.86;37.98;99300.13;5034590;28;811;-62
2021/08/28 09:54:14;;;;;;;;;;;;;;;32.35;37.91;99284.16;5034142;28;1886;-62
2021/08/28 09:56:41;;;;;;;;;;;;;;;32.74;37.24;99285.00;5034241;28;822;-62
2021/08/28 09:59:22;;;;;;;;;;;;;;;33.21;36.60;99280.81;5034015;28;827;-62
2021/08/28 10:01:48;;;;;;;;;;;;;;;33.52;35.79;99281.53;5034166;28;901;-63
2021/08/28 10:04:15;;;;;;;;;;;;;;;33.60;36.04;99289.38;5033930;28;865;-63
2021/08/28 10:06:46;;;;;;;;;;;;;;;33.55;36.07;99286.09;5034352;28;826;-63
2021/08/28 10:09:15;;;;;;;;;;;;;;;32.64;37.59;99293.38;5034313;28;846;-63
2021/08/28 10:11:49;;;;;;;;;;;;;;;32.00;38.47;99300.78;5033797;28;791;-62
2021/08/28 10:14:17;;;;;;;;;;;;;;;32.21;38.10;99283.53;5033795;28;1906;-63
2021/08/28 10:16:45;;;;;;;;;;;;;;;33.04;36.60;99289.22;5033604;28;1361;-62
2021/08/28 10:19:15;;;;;;;;;;;;;;;33.45;36.45;99287.28;5033241;28;838;-63
2021/08/28 10:21:43;;;;;;;;;;;;;;;33.94;35.88;99286.75;5034090;28;892;-62
2021/08/28 10:24:12;;;;;;;;;;;;;;;34.49;34.80;99270.84;5033928;28;835;-63
2021/08/28 10:26:40;;;;;;;;;;;;;;;33.82;35.10;99282.81;5033583;28;874;-63
2021/08/28 10:29:08;;;;;;;;;;;;;;;32.62;37.01;99283.84;5033582;28;814;-62
2021/08/28 10:31:34;;;;;;;;;;;;;;;31.71;39.09;99275.09;5033627;28;815;-62
2021/08/28 10:34:00;;;;;;;;;;;;;;;31.31;39.70;99278.25;5033412;28;1977;-62
2021/08/28 10:36:27;;;;;;;;;;;;;;;31.03;40.04;99275.41;5033540;28;807;-62
2021/08/28 10:38:54;;;;;;;;;;;;;;;31.28;41.05;99279.41;5033401;28;814;-62
2021/08/28 10:41:22;;;;;;;;;;;;;;;31.88;40.47;99276.72;5033365;28;858;-62
2021/08/28 10:43:48;;;;;;;;;;;;;;;32.35;38.85;99279.19;5033303;28;882;-62
2021/08/28 10:46:22;;;;;;;;;;;;;;;32.67;38.52;99274.31;5033336;28;854;-62
2021/08/28 10:48:53;;;;;;;;;;;;;;;33.49;36.72;99273.34;5033143;28;954;-63
2021/08/28 10:51:39;;;;;;;;;;;;;;;33.94;35.18;99263.84;5033463;28;869;-62
2021/08/28 10:54:09;;;;;;;;;;;;;;;33.18;36.36;99264.81;5031727;28;1937;-62
2021/08/28 10:56:40;;;;;;;;;;;;;;;32.24;38.45;99268.09;5033059;28;806;-62
2021/08/28 10:59:21;;;;;;;;;;;;;;;31.41;39.42;99267.09;5033037;28;881;-62
2021/08/28 11:01:56;;;;;;;;;;;;;;;30.83;40.99;99263.44;5032914;28;838;-62
2021/08/28 11:04:36;;;;;;;;;;;;;;;30.77;41.37;99256.31;5032883;28;896;-62
2021/08/28 11:07:21;;;;;;;;;;;;;;;30.78;41.31;99252.16;5032818;28;975;-62
2021/08/28 11:10:04;;;;;;;;;;;;;;;30.65;42.02;99256.59;5032763;28;898;-62
2021/08/28 11:12:51;;;;;;;;;;;;;;;30.65;42.45;99248.03;5031405;28;1889;-62
2021/08/28 11:15:23;;;;;;;;;;;;;;;30.66;42.14;99240.25;5022371;28;1389;-62
2021/08/28 11:17:52;;;;;;;;;;;;;;;30.69;42.29;99242.00;5032514;28;1296;-62
2021/08/28 11:20:26;;;;;;;;;;;;;;;30.88;42.02;99230.41;5032540;28;889;-62
2021/08/28 11:22:54;;;;;;;;;;;;;;;30.97;42.43;99220.56;5032713;28;847;-62
2021/08/28 11:25:25;;;;;;;;;;;;;;;30.98;42.65;99220.00;5032438;28;822;-62
2021/08/28 11:27:57;;;;;;;;;;;;;;;31.03;42.46;99213.38;5032413;28;1069;-62
2021/08/28 11:30:47;;;;;;;;;;;;;;;30.92;42.59;99217.31;5031511;28;1012;-62
2021/08/28 11:33:17;;;;;;;;;;;;;;;30.63;43.67;99218.56;5025222;28;1981;-62
2021/08/28 11:35:47;;;;;;;;;;;;;;;30.37;43.98;99213.75;5032367;28;830;-62
2021/08/28 11:38:13;;;;;;;;;;;;;;;30.06;44.53;99219.09;5031078;28;803;-62
2021/08/28 11:40:40;;;;;;;;;;;;;;;29.81;45.51;99213.72;5032174;28;814;-62
2021/08/28 11:43:11;;;;;;;;;;;;;;;29.78;45.63;99214.78;5032163;28;858;-62
2021/08/28 11:45:39;;;;;;;;;;;;;;;29.72;45.44;99217.00;5032194;28;834;-63
2021/08/28 11:48:10;;;;;;;;;;;;;;;29.70;45.84;99211.09;5032128;28;803;-62
2021/08/28 11:50:36;;;;;;;;;;;;;;;29.80;45.76;99200.78;5032505;28;778;-62
2021/08/28 11:53:03;;;;;;;;;;;;;;;29.69;45.50;99196.09;5032473;28;1893;-63
2021/08/28 11:55:34;;;;;;;;;;;;;;;29.48;46.08;99204.53;5032224;28;861;-62
2021/08/28 11:58:08;;;;;;;;;;;;;;;29.38;46.79;99199.81;5032345;28;898;-62
2021/08/28 12:00:36;;;;;;;;;;;;;;;29.42;47.26;99198.16;5032131;28;822;-63
2021/08/28 12:03:06;;;;;;;;;;;;;;;29.70;46.87;99206.19;5031986;28;870;-62
2021/08/28 12:05:33;;;;;;;;;;;;;;;30.06;46.47;99204.84;5031776;28;877;-62
2021/08/28 12:07:59;;;;;;;;;;;;;;;30.28;46.04;99210.06;5031803;28;842;-62
2021/08/28 12:10:26;;;;;;;;;;;;;;;30.45;45.86;99197.47;5031792;28;889;-62
2021/08/28 12:12:57;;;;;;;;;;;;;;;30.58;46.03;99211.69;5031652;28;1886;-62
2021/08/28 12:15:23;;;;;;;;;;;;;;;30.54;46.51;99202.72;5031937;28;901;-63
2021/08/28 12:17:51;;;;;;;;;;;;;;;30.68;47.02;99201.31;5031495;28;1408;-62
2021/08/28 12:20:24;;;;;;;;;;;;;;;30.84;46.52;99207.13;5031631;28;854;-62
2021/08/28 12:22:51;;;;;;;;;;;;;;;31.46;47.14;99202.63;5031669;28;874;-63
2021/08/28 12:25:18;;;;;;;;;;;;;;;31.83;46.14;99198.38;5031560;28;862;-62
2021/08/28 12:27:45;;;;;;;;;;;;;;;31.63;47.73;99200.03;5030361;28;1270;-62
2021/08/28 12:30:12;;;;;;;;;;;;;;;31.01;50.36;99193.22;5031560;28;901;-62
2021/08/28 12:32:40;;;;;;;;;;;;;;;30.44;51.94;99188.16;5031522;28;1906;-62
2021/08/28 12:35:07;;;;;;;;;;;;;;;29.92;53.56;99167.88;5031504;28;826;-62
2021/08/28 12:37:37;;;;;;;;;;;;;;;29.69;54.40;99178.22;5030077;28;1467;-62
2021/08/28 12:40:08;;;;;;;;;;;;;;;30.19;53.72;99173.44;5031499;28;877;-62
2021/08/28 12:42:36;;;;;;;;;;;;;;;31.37;50.23;99174.56;5032510;28;1405;-61
2021/08/28 12:45:05;;;;;;;;;;;;;;;32.19;47.33;99180.41;5035512;28;830;-62
2021/08/28 12:47:33;;;;;;;;;;;;;;;33.06;46.18;99178.53;5035461;28;846;-62
2021/08/28 12:49:59;;;;;;;;;;;;;;;33.87;43.89;99181.53;5035445;28;894;-62
2021/08/28 12:52:43;;;;;;;;;;;;;;;33.89;43.13;99193.16;5035355;28;1889;-62
2021/08/28 12:55:26;;;;;;;;;;;;;;;33.50;43.57;99178.25;5035647;28;837;-62
2021/08/28 12:57:54;;;;;;;;;;;;;;;33.72;43.71;99188.09;5033987;28;865;-62
2021/08/28 13:00:20;;;;;;;;;;;;;;;33.16;43.42;99187.31;5035233;28;806;-62
2021/08/28 13:02:48;;;;;;;;;;;;;;;32.29;45.50;99172.06;5035261;28;830;-62
2021/08/28 13:05:22;;;;;;;;;;;;;;;32.22;45.99;99167.06;5035279;28;991;-62
2021/08/28 13:07:49;;;;;;;;;;;;;;;32.45;45.21;99173.56;5034988;28;912;-62
2021/08/28 13:10:16;;;;;;;;;;;;;;;32.59;45.11;99174.19;5035145;28;873;-62
2021/08/28 13:12:57;;;;;;;;;;;;;;;32.35;43.34;99187.69;5034927;28;1885;-63
2021/08/28 13:15:26;;;;;;;;;;;;;;;32.44;43.73;99177.78;5035144;28;883;-63
2021/08/28 13:18:14;;;;;;;;;;;;;;;32.91;42.45;99172.84;5034806;28;1382;-63